sensor_id;sensor_type;location;lat;lon;timestamp;pressure;altitude;pressure_sealevel;temperature;humidity
28432;BME280;15664;51.302;7.744;2022-12-07T00:01:37;83837.44;;;-146.98;100.00
28432;BME280;15664;51.302;7.744;2022-12-07T00:04:04;83837.44;;;-146.98;100.00
28432;BME280;15664;51.302;7.744;2022-12-07T00:06:39;83790.59;;;-146.98;100.00
28432;BME280;15664;51.302;7.744;2022-12-07T00:09:06;83806.88;;;-146.98;100.00
28432;BME280;15664;51.302;7.744;2022-12-07T00:11:32;83806.88;;;-146.98;100.00
28432;BME280;15664;51.302;7.744;2022-12-07T00:14:03;83804.84;;;-146.98;100.00
28432;BME280;15664;51.302;7.744;2022-12-07T00:16:31;83837.44;;;-146.98;100.00
28432;BME280;15664;51.302;7.744;2022-12-07T00:18:57;83817.06;;;-146.98;100.00
28432;BME280;15664;51.302;7.744;2022-12-07T00:21:25;83804.84;;;-146.98;100.00
28432;BME280;15664;51.302;7.744;2022-12-07T00:23:52;83819.09;;;-146.98;100.00
28432;BME280;15664;51.302;7.744;2022-12-07T00:26:34;83843.53;;;-146.98;100.00
28432;BME280;15664;51.302;7.744;2022-12-07T00:29:07;83796.69;;;-146.98;100.00
28432;BME280;15664;51.302;7.744;2022-12-07T00:31:36;83813.00;;;-146.98;100.00
28432;BME280;15664;51.302;7.744;2022-12-07T00:34:05;83782.44;;;-146.98;100.00
28432;BME280;15664;51.302;7.744;2022-12-07T00:36:30;83796.69;;;-146.98;100.00
28432;BME280;15664;51.302;7.744;2022-12-07T00:38:57;83851.69;;;-146.98;100.00
28432;BME280;15664;51.302;7.744;2022-12-07T00:41:24;83810.97;;;-146.98;100.00
28432;BME280;15664;51.302;7.744;2022-12-07T00:43:50;83804.84;;;-146.98;100.00
28432;BME280;15664;51.302;7.744;2022-12-07T00:46:17;83788.56;;;-146.98;100.00
28432;BME280;15664;51.302;7.744;2022-12-07T00:48:43;83776.34;;;-146.98;100.00
28432;BME280;15664;51.302;7.744;2022-12-07T00:51:10;83808.91;;;-146.98;100.00
28432;BME280;15664;51.302;7.744;2022-12-07T00:53:37;83796.69;;;-146.98;100.00
28432;BME280;15664;51.302;7.744;2022-12-07T00:56:07;83825.22;;;-146.98;100.00
28432;BME280;15664;51.302;7.744;2022-12-07T00:58:33;83821.13;;;-146.98;100.00
28432;BME280;15664;51.302;7.744;2022-12-07T01:01:03;83808.91;;;-146.98;100.00
28432;BME280;15664;51.302;7.744;2022-12-07T01:03:29;83792.63;;;-146.98;100.00
28432;BME280;15664;51.302;7.744;2022-12-07T01:05:56;83817.06;;;-146.98;100.00
28432;BME280;15664;51.302;7.744;2022-12-07T01:08:22;83804.84;;;-146.98;100.00
28432;BME280;15664;51.302;7.744;2022-12-07T01:10:48;83794.66;;;-146.98;100.00
28432;BME280;15664;51.302;7.744;2022-12-07T01:13:15;83780.41;;;-146.98;100.00
28432;BME280;15664;51.302;7.744;2022-12-07T01:15:42;83810.97;;;-146.98;100.00
28432;BME280;15664;51.302;7.744;2022-12-07T01:18:08;83806.88;;;-146.98;100.00
28432;BME280;15664;51.302;7.744;2022-12-07T01:20:33;83776.34;;;-146.98;100.00
28432;BME280;15664;51.302;7.744;2022-12-07T01:22:59;83762.06;;;-146.98;100.00
28432;BME280;15664;51.302;7.744;2022-12-07T01:25:24;83780.41;;;-146.98;100.00
28432;BME280;15664;51.302;7.744;2022-12-07T01:27:49;83786.50;;;-146.98;100.00
28432;BME280;15664;51.302;7.744;2022-12-07T01:30:15;83790.59;;;-146.98;100.00
28432;BME280;15664;51.302;7.744;2022-12-07T01:32:40;83780.41;;;-146.98;100.00
28432;BME280;15664;51.302;7.744;2022-12-07T01:35:05;83800.78;;;-146.98;100.00
28432;BME280;15664;51.302;7.744;2022-12-07T01:37:35;83804.84;;;-146.98;100.00
28432;BME280;15664;51.302;7.744;2022-12-07T01:40:02;83827.25;;;-146.98;100.00
28432;BME280;15664;51.302;7.744;2022-12-07T01:42:28;83758.00;;;-146.98;100.00
28432;BME280;15664;51.302;7.744;2022-12-07T01:45:34;83780.41;;;-146.98;100.00
28432;BME280;15664;51.302;7.744;2022-12-07T01:48:01;83784.47;;;-146.98;100.00
28432;BME280;15664;51.302;7.744;2022-12-07T01:50:28;83770.22;;;-146.98;100.00
28432;BME280;15664;51.302;7.744;2022-12-07T01:52:58;83806.88;;;-146.98;100.00
28432;BME280;15664;51.302;7.744;2022-12-07T01:55:25;83788.56;;;-146.98;100.00
28432;BME280;15664;51.302;7.744;2022-12-07T01:57:52;83792.63;;;-146.98;100.00
28432;BME280;15664;51.302;7.744;2022-12-07T02:00:19;83782.44;;;-146.98;100.00
28432;BME280;15664;51.302;7.744;2022-12-07T02:02:59;83849.66;;;-146.98;100.00
28432;BME280;15664;51.302;7.744;2022-12-07T02:05:27;83758.00;;;-146.98;100.00
28432;BME280;15664;51.302;7.744;2022-12-07T02:07:55;83808.91;;;-146.98;100.00
28432;BME280;15664;51.302;7.744;2022-12-07T02:10:24;83782.44;;;-146.98;100.00
28432;BME280;15664;51.302;7.744;2022-12-07T02:13:00;83776.34;;;-146.98;100.00
28432;BME280;15664;51.302;7.744;2022-12-07T02:15:48;83784.47;;;-146.98;100.00
28432;BME280;15664;51.302;7.744;2022-12-07T02:21:14;83813.00;;;-146.98;100.00
28432;BME280;15664;51.302;7.744;2022-12-07T02:23:59;83817.06;;;-146.98;100.00
28432;BME280;15664;51.302;7.744;2022-12-07T02:29:47;83786.50;;;-146.98;100.00
28432;BME280;15664;51.302;7.744;2022-12-07T02:32:28;83776.34;;;-146.98;100.00
28432;BME280;15664;51.302;7.744;2022-12-07T02:35:05;83786.50;;;-146.98;100.00
28432;BME280;15664;51.302;7.744;2022-12-07T02:37:53;83796.69;;;-146.98;100.00
28432;BME280;15664;51.302;7.744;2022-12-07T02:40:31;83788.56;;;-146.98;100.00
28432;BME280;15664;51.302;7.744;2022-12-07T02:43:20;83780.41;;;-146.98;100.00
28432;BME280;15664;51.302;7.744;2022-12-07T02:45:50;83796.69;;;-146.98;100.00
28432;BME280;15664;51.302;7.744;2022-12-07T02:48:17;83808.91;;;-146.98;100.00
28432;BME280;15664;51.302;7.744;2022-12-07T02:50:45;83806.88;;;-146.98;100.00
28432;BME280;15664;51.302;7.744;2022-12-07T02:53:48;83798.75;;;-146.98;100.00
28432;BME280;15664;51.302;7.744;2022-12-07T02:56:26;83839.47;;;-146.98;100.00
28432;BME280;15664;51.302;7.744;2022-12-07T03:04:45;83808.91;;;-146.98;100.00
28432;BME280;15664;51.302;7.744;2022-12-07T03:07:45;83849.66;;;-146.98;100.00
28432;BME280;15664;51.302;7.744;2022-12-07T03:13:25;83898.53;;;-146.98;100.00
28432;BME280;15664;51.302;7.744;2022-12-07T03:15:48;83774.28;;;-146.98;100.00
28432;BME280;15664;51.302;7.744;2022-12-07T03:18:17;83808.91;;;-146.98;100.00
28432;BME280;15664;51.302;7.744;2022-12-07T03:20:46;83821.13;;;-146.98;100.00
28432;BME280;15664;51.302;7.744;2022-12-07T03:23:15;83802.81;;;-146.98;100.00
28432;BME280;15664;51.302;7.744;2022-12-07T03:25:48;83798.75;;;-146.98;100.00
28432;BME280;15664;51.302;7.744;2022-12-07T03:28:18;83835.41;;;-146.98;100.00
28432;BME280;15664;51.302;7.744;2022-12-07T03:30:49;83804.84;;;-146.98;100.00
28432;BME280;15664;51.302;7.744;2022-12-07T03:33:49;83863.91;;;-146.98;100.00
28432;BME280;15664;51.302;7.744;2022-12-07T03:36:25;83788.56;;;-146.98;100.00
28432;BME280;15664;51.302;7.744;2022-12-07T03:41:37;83802.81;;;-146.98;100.00
28432;BME280;15664;51.302;7.744;2022-12-07T03:44:03;83800.78;;;-146.98;100.00
28432;BME280;15664;51.302;7.744;2022-12-07T03:46:45;83825.22;;;-146.98;100.00
28432;BME280;15664;51.302;7.744;2022-12-07T03:49:24;83800.78;;;-146.98;100.00
28432;BME280;15664;51.302;7.744;2022-12-07T03:54:31;83780.41;;;-146.98;100.00
28432;BME280;15664;51.302;7.744;2022-12-07T03:57:01;83817.06;;;-146.98;100.00
28432;BME280;15664;51.302;7.744;2022-12-07T03:59:27;83815.03;;;-146.98;100.00
28432;BME280;15664;51.302;7.744;2022-12-07T04:01:56;83823.19;;;-146.98;100.00
28432;BME280;15664;51.302;7.744;2022-12-07T04:04:23;83827.25;;;-146.98;100.00
28432;BME280;15664;51.302;7.744;2022-12-07T04:06:50;83778.38;;;-146.98;100.00
28432;BME280;15664;51.302;7.744;2022-12-07T04:09:15;83804.84;;;-146.98;100.00
28432;BME280;15664;51.302;7.744;2022-12-07T04:11:41;83800.78;;;-146.98;100.00
28432;BME280;15664;51.302;7.744;2022-12-07T04:14:06;83796.69;;;-146.98;100.00
28432;BME280;15664;51.302;7.744;2022-12-07T04:16:51;83819.09;;;-146.98;100.00
28432;BME280;15664;51.302;7.744;2022-12-07T04:19:19;83790.59;;;-146.98;100.00
28432;BME280;15664;51.302;7.744;2022-12-07T04:21:45;83802.81;;;-146.98;100.00
28432;BME280;15664;51.302;7.744;2022-12-07T04:24:12;83837.44;;;-146.98;100.00
28432;BME280;15664;51.302;7.744;2022-12-07T04:26:38;83788.56;;;-146.98;100.00
28432;BME280;15664;51.302;7.744;2022-12-07T04:29:03;83849.66;;;-146.98;100.00
28432;BME280;15664;51.302;7.744;2022-12-07T04:31:28;83788.56;;;-146.98;100.00
28432;BME280;15664;51.302;7.744;2022-12-07T04:33:53;83784.47;;;-146.98;100.00
28432;BME280;15664;51.302;7.744;2022-12-07T04:36:19;83782.44;;;-146.98;100.00
28432;BME280;15664;51.302;7.744;2022-12-07T04:38:46;83810.97;;;-146.98;100.00
28432;BME280;15664;51.302;7.744;2022-12-07T04:41:11;83821.13;;;-146.98;100.00
28432;BME280;15664;51.302;7.744;2022-12-07T04:43:37;83833.34;;;-146.98;100.00
28432;BME280;15664;51.302;7.744;2022-12-07T04:46:02;83815.03;;;-146.98;100.00
28432;BME280;15664;51.302;7.744;2022-12-07T04:48:28;83792.63;;;-146.98;100.00
28432;BME280;15664;51.302;7.744;2022-12-07T04:50:53;83796.69;;;-146.98;100.00
28432;BME280;15664;51.302;7.744;2022-12-07T04:53:19;83786.50;;;-146.98;100.00
28432;BME280;15664;51.302;7.744;2022-12-07T04:55:45;83786.50;;;-146.98;100.00
28432;BME280;15664;51.302;7.744;2022-12-07T04:58:11;83817.06;;;-146.98;100.00
28432;BME280;15664;51.302;7.744;2022-12-07T05:00:36;83798.75;;;-146.98;100.00
28432;BME280;15664;51.302;7.744;2022-12-07T05:03:01;83798.75;;;-146.98;100.00
28432;BME280;15664;51.302;7.744;2022-12-07T05:05:27;83819.09;;;-146.98;100.00
28432;BME280;15664;51.302;7.744;2022-12-07T05:07:53;83800.78;;;-146.98;100.00
28432;BME280;15664;51.302;7.744;2022-12-07T05:10:18;83865.94;;;-146.98;100.00
28432;BME280;15664;51.302;7.744;2022-12-07T05:12:43;83804.84;;;-146.98;100.00
28432;BME280;15664;51.302;7.744;2022-12-07T05:15:10;83808.91;;;-146.98;100.00
28432;BME280;15664;51.302;7.744;2022-12-07T05:17:36;83782.44;;;-146.98;100.00
28432;BME280;15664;51.302;7.744;2022-12-07T05:20:01;83843.53;;;-146.98;100.00
28432;BME280;15664;51.302;7.744;2022-12-07T05:22:27;83841.50;;;-146.98;100.00
28432;BME280;15664;51.302;7.744;2022-12-07T05:24:56;83833.34;;;-146.98;100.00
28432;BME280;15664;51.302;7.744;2022-12-07T05:27:22;83804.84;;;-146.98;100.00
28432;BME280;15664;51.302;7.744;2022-12-07T05:29:47;83796.69;;;-146.98;100.00
28432;BME280;15664;51.302;7.744;2022-12-07T05:32:14;83831.31;;;-146.98;100.00
28432;BME280;15664;51.302;7.744;2022-12-07T05:34:39;83802.81;;;-146.98;100.00
28432;BME280;15664;51.302;7.744;2022-12-07T05:37:04;83821.13;;;-146.98;100.00
28432;BME280;15664;51.302;7.744;2022-12-07T05:39:30;83847.63;;;-146.98;100.00
28432;BME280;15664;51.302;7.744;2022-12-07T05:41:55;83813.00;;;-146.98;100.00
28432;BME280;15664;51.302;7.744;2022-12-07T05:44:40;83837.44;;;-146.98;100.00
28432;BME280;15664;51.302;7.744;2022-12-07T05:47:06;83792.63;;;-146.98;100.00
28432;BME280;15664;51.302;7.744;2022-12-07T05:49:31;83810.97;;;-146.98;100.00
28432;BME280;15664;51.302;7.744;2022-12-07T05:51:57;83813.00;;;-146.98;100.00
28432;BME280;15664;51.302;7.744;2022-12-07T05:54:22;83821.13;;;-146.98;100.00
28432;BME280;15664;51.302;7.744;2022-12-07T05:56:47;83835.41;;;-146.98;100.00
28432;BME280;15664;51.302;7.744;2022-12-07T05:59:13;83833.34;;;-146.98;100.00
28432;BME280;15664;51.302;7.744;2022-12-07T06:01:48;83813.00;;;-146.98;100.00
28432;BME280;15664;51.302;7.744;2022-12-07T06:04:13;83874.09;;;-146.98;100.00
28432;BME280;15664;51.302;7.744;2022-12-07T06:06:39;83829.28;;;-146.98;100.00
28432;BME280;15664;51.302;7.744;2022-12-07T06:09:04;83853.72;;;-146.98;100.00
28432;BME280;15664;51.302;7.744;2022-12-07T06:11:29;83768.19;;;-146.98;100.00
28432;BME280;15664;51.302;7.744;2022-12-07T06:14:13;83888.34;;;-146.98;100.00
28432;BME280;15664;51.302;7.744;2022-12-07T06:16:39;83804.84;;;-146.98;100.00
28432;BME280;15664;51.302;7.744;2022-12-07T06:19:04;83810.97;;;-146.98;100.00
28432;BME280;15664;51.302;7.744;2022-12-07T06:21:29;83766.16;;;-146.98;100.00
28432;BME280;15664;51.302;7.744;2022-12-07T06:23:55;83810.97;;;-146.98;100.00
28432;BME280;15664;51.302;7.744;2022-12-07T06:26:20;83821.13;;;-146.98;100.00
28432;BME280;15664;51.302;7.744;2022-12-07T06:28:46;83792.63;;;-146.98;100.00
28432;BME280;15664;51.302;7.744;2022-12-07T06:31:11;83804.84;;;-146.98;100.00
28432;BME280;15664;51.302;7.744;2022-12-07T06:33:36;83821.13;;;-146.98;100.00
28432;BME280;15664;51.302;7.744;2022-12-07T06:36:02;83813.00;;;-146.98;100.00
28432;BME280;15664;51.302;7.744;2022-12-07T06:38:27;83837.44;;;-146.98;100.00
28432;BME280;15664;51.302;7.744;2022-12-07T06:40:52;83882.25;;;-146.98;100.00
28432;BME280;15664;51.302;7.744;2022-12-07T06:43:18;83829.28;;;-146.98;100.00
28432;BME280;15664;51.302;7.744;2022-12-07T06:45:43;83798.75;;;-146.98;100.00
28432;BME280;15664;51.302;7.744;2022-12-07T06:48:08;83808.91;;;-146.98;100.00
28432;BME280;15664;51.302;7.744;2022-12-07T06:50:34;83821.13;;;-146.98;100.00
28432;BME280;15664;51.302;7.744;2022-12-07T06:52:59;83853.72;;;-146.98;100.00
28432;BME280;15664;51.302;7.744;2022-12-07T06:55:24;83821.13;;;-146.98;100.00
28432;BME280;15664;51.302;7.744;2022-12-07T06:57:50;83804.84;;;-146.98;100.00
28432;BME280;15664;51.302;7.744;2022-12-07T07:00:15;83800.78;;;-146.98;100.00
28432;BME280;15664;51.302;7.744;2022-12-07T07:02:41;83845.59;;;-146.98;100.00
28432;BME280;15664;51.302;7.744;2022-12-07T07:05:06;83817.06;;;-146.98;100.00
28432;BME280;15664;51.302;7.744;2022-12-07T07:07:32;83835.41;;;-146.98;100.00
28432;BME280;15664;51.302;7.744;2022-12-07T07:09:57;83888.34;;;-146.98;100.00
28432;BME280;15664;51.302;7.744;2022-12-07T07:12:22;83841.50;;;-146.98;100.00
28432;BME280;15664;51.302;7.744;2022-12-07T07:14:48;83821.13;;;-146.98;100.00
28432;BME280;15664;51.302;7.744;2022-12-07T07:17:13;83821.13;;;-146.98;100.00
28432;BME280;15664;51.302;7.744;2022-12-07T07:19:38;83847.63;;;-146.98;100.00
28432;BME280;15664;51.302;7.744;2022-12-07T07:22:04;83857.81;;;-146.98;100.00
28432;BME280;15664;51.302;7.744;2022-12-07T07:24:29;83829.28;;;-146.98;100.00
28432;BME280;15664;51.302;7.744;2022-12-07T07:26:55;83845.59;;;-146.98;100.00
28432;BME280;15664;51.302;7.744;2022-12-07T07:29:20;83857.81;;;-146.98;100.00
28432;BME280;15664;51.302;7.744;2022-12-07T07:31:46;83845.59;;;-146.98;100.00
28432;BME280;15664;51.302;7.744;2022-12-07T07:34:11;83829.28;;;-146.98;100.00
28432;BME280;15664;51.302;7.744;2022-12-07T07:36:37;83853.72;;;-146.98;100.00
28432;BME280;15664;51.302;7.744;2022-12-07T07:39:02;83786.50;;;-146.98;100.00
28432;BME280;15664;51.302;7.744;2022-12-07T07:41:27;83859.84;;;-146.98;100.00
28432;BME280;15664;51.302;7.744;2022-12-07T07:43:53;83835.41;;;-146.98;100.00
28432;BME280;15664;51.302;7.744;2022-12-07T07:46:18;83853.72;;;-146.98;100.00
28432;BME280;15664;51.302;7.744;2022-12-07T07:48:43;83786.50;;;-146.98;100.00
28432;BME280;15664;51.302;7.744;2022-12-07T07:51:09;83841.50;;;-146.98;100.00
28432;BME280;15664;51.302;7.744;2022-12-07T07:53:34;83886.31;;;-146.98;100.00
28432;BME280;15664;51.302;7.744;2022-12-07T07:55:59;83870.03;;;-146.98;100.00
28432;BME280;15664;51.302;7.744;2022-12-07T07:58:25;83849.66;;;-146.98;100.00
28432;BME280;15664;51.302;7.744;2022-12-07T08:00:51;83849.66;;;-146.98;100.00
28432;BME280;15664;51.302;7.744;2022-12-07T08:03:16;83853.72;;;-146.98;100.00
28432;BME280;15664;51.302;7.744;2022-12-07T08:05:42;83821.13;;;-146.98;100.00
28432;BME280;15664;51.302;7.744;2022-12-07T08:08:07;83839.47;;;-146.98;100.00
28432;BME280;15664;51.302;7.744;2022-12-07T08:10:33;83829.28;;;-146.98;100.00
28432;BME280;15664;51.302;7.744;2022-12-07T08:12:59;83863.91;;;-146.98;100.00
28432;BME280;15664;51.302;7.744;2022-12-07T08:15:40;83841.50;;;-146.98;100.00
28432;BME280;15664;51.302;7.744;2022-12-07T08:18:06;83792.63;;;-146.98;100.00
28432;BME280;15664;51.302;7.744;2022-12-07T08:20:32;83810.97;;;-146.98;100.00
28432;BME280;15664;51.302;7.744;2022-12-07T08:22:58;83874.09;;;-146.98;100.00
28432;BME280;15664;51.302;7.744;2022-12-07T08:25:23;83833.34;;;-146.98;100.00
28432;BME280;15664;51.302;7.744;2022-12-07T08:27:49;83870.03;;;-146.98;100.00
28432;BME280;15664;51.302;7.744;2022-12-07T08:30:15;83813.00;;;-146.98;100.00
28432;BME280;15664;51.302;7.744;2022-12-07T08:32:41;83890.38;;;-146.98;100.00
28432;BME280;15664;51.302;7.744;2022-12-07T08:35:06;83815.03;;;-146.98;100.00
28432;BME280;15664;51.302;7.744;2022-12-07T08:37:32;83825.22;;;-146.98;100.00
28432;BME280;15664;51.302;7.744;2022-12-07T08:39:58;83802.81;;;-146.98;100.00
28432;BME280;15664;51.302;7.744;2022-12-07T08:42:23;83776.34;;;-146.98;100.00
28432;BME280;15664;51.302;7.744;2022-12-07T08:44:53;83796.69;;;-146.98;100.00
28432;BME280;15664;51.302;7.744;2022-12-07T08:47:18;83792.63;;;-146.98;100.00
28432;BME280;15664;51.302;7.744;2022-12-07T08:49:47;83776.34;;;-146.98;100.00
28432;BME280;15664;51.302;7.744;2022-12-07T08:52:15;83813.00;;;-146.98;100.00
28432;BME280;15664;51.302;7.744;2022-12-07T08:54:40;83813.00;;;-146.98;99.67
28432;BME280;15664;51.302;7.744;2022-12-07T08:57:07;83806.88;;;-146.98;99.74
28432;BME280;15664;51.302;7.744;2022-12-07T08:59:34;83819.09;;;-146.98;99.65
28432;BME280;15664;51.302;7.744;2022-12-07T09:02:00;83821.13;;;-146.98;99.34
28432;BME280;15664;51.302;7.744;2022-12-07T09:04:26;83782.44;;;-146.98;99.15
28432;BME280;15664;51.302;7.744;2022-12-07T09:06:51;83806.88;;;-146.98;98.94
28432;BME280;15664;51.302;7.744;2022-12-07T09:09:18;83796.69;;;-146.98;98.75
28432;BME280;15664;51.302;7.744;2022-12-07T09:11:44;83806.88;;;-146.98;98.60
28432;BME280;15664;51.302;7.744;2022-12-07T09:14:10;83804.84;;;-146.98;98.79
28432;BME280;15664;51.302;7.744;2022-12-07T09:16:35;83819.09;;;-146.98;98.87
28432;BME280;15664;51.302;7.744;2022-12-07T09:19:01;83784.47;;;-146.98;98.69
28432;BME280;15664;51.302;7.744;2022-12-07T09:21:26;83768.19;;;-146.98;98.50
28432;BME280;15664;51.302;7.744;2022-12-07T09:23:51;83833.34;;;-146.98;98.57
28432;BME280;15664;51.302;7.744;2022-12-07T09:26:17;83804.84;;;-146.98;98.38
28432;BME280;15664;51.302;7.744;2022-12-07T09:28:42;83790.59;;;-146.98;97.85
28432;BME280;15664;51.302;7.744;2022-12-07T09:31:07;83747.81;;;-146.98;97.80
28432;BME280;15664;51.302;7.744;2022-12-07T09:33:33;83829.28;;;-146.98;98.02
28432;BME280;15664;51.302;7.744;2022-12-07T09:35:58;83782.44;;;-146.98;98.32
28432;BME280;15664;51.302;7.744;2022-12-07T09:38:23;83808.91;;;-146.98;98.06
28432;BME280;15664;51.302;7.744;2022-12-07T09:40:52;83851.69;;;-146.98;98.22
28432;BME280;15664;51.302;7.744;2022-12-07T09:43:20;83827.25;;;-146.98;98.11
28432;BME280;15664;51.302;7.744;2022-12-07T09:45:48;83792.63;;;-146.98;97.95
28432;BME280;15664;51.302;7.744;2022-12-07T09:48:20;83800.78;;;-146.98;98.04
28432;BME280;15664;51.302;7.744;2022-12-07T09:50:47;83735.59;;;-146.98;98.03
28432;BME280;15664;51.302;7.744;2022-12-07T09:53:26;83743.75;;;-146.98;98.14
28432;BME280;15664;51.302;7.744;2022-12-07T09:55:53;83821.13;;;-146.98;98.26
28432;BME280;15664;51.302;7.744;2022-12-07T09:58:22;83806.88;;;-146.98;98.03
28432;BME280;15664;51.302;7.744;2022-12-07T10:00:51;83792.63;;;-146.98;98.20
28432;BME280;15664;51.302;7.744;2022-12-07T10:03:18;83780.41;;;-146.98;98.40
28432;BME280;15664;51.302;7.744;2022-12-07T10:05:49;83829.28;;;-146.98;98.01
28432;BME280;15664;51.302;7.744;2022-12-07T10:08:16;83831.31;;;-146.98;98.11
28432;BME280;15664;51.302;7.744;2022-12-07T10:10:43;83751.91;;;-146.98;98.05
28432;BME280;15664;51.302;7.744;2022-12-07T10:13:32;83853.72;;;-146.98;98.37
28432;BME280;15664;51.302;7.744;2022-12-07T10:15:58;83788.56;;;-146.98;98.64
28432;BME280;15664;51.302;7.744;2022-12-07T10:18:35;83825.22;;;-146.98;98.96
28432;BME280;15664;51.302;7.744;2022-12-07T10:21:02;83788.56;;;-146.98;99.27
28432;BME280;15664;51.302;7.744;2022-12-07T10:23:28;83792.63;;;-146.98;99.18
28432;BME280;15664;51.302;7.744;2022-12-07T10:25:53;83823.19;;;-146.98;99.12
28432;BME280;15664;51.302;7.744;2022-12-07T10:28:20;83833.34;;;-146.98;99.28
28432;BME280;15664;51.302;7.744;2022-12-07T10:30:56;83833.34;;;-146.98;99.48
28432;BME280;15664;51.302;7.744;2022-12-07T10:35:53;83790.59;;;-146.98;99.48
28432;BME280;15664;51.302;7.744;2022-12-07T10:38:19;83808.91;;;-146.98;99.47
28432;BME280;15664;51.302;7.744;2022-12-07T10:40:44;83833.34;;;-146.98;99.41
28432;BME280;15664;51.302;7.744;2022-12-07T10:48:33;83821.13;;;-146.98;99.16
28432;BME280;15664;51.302;7.744;2022-12-07T10:51:09;83804.84;;;-146.98;98.94
28432;BME280;15664;51.302;7.744;2022-12-07T11:02:41;83764.13;;;-146.98;98.83
28432;BME280;15664;51.302;7.744;2022-12-07T11:05:18;83782.44;;;-146.98;98.56
28432;BME280;15664;51.302;7.744;2022-12-07T11:13:24;83813.00;;;-146.98;97.89
28432;BME280;15664;51.302;7.744;2022-12-07T11:18:52;83829.28;;;-146.98;97.35
28432;BME280;15664;51.302;7.744;2022-12-07T11:30:00;83804.84;;;-146.98;94.63
28432;BME280;15664;51.302;7.744;2022-12-07T11:38:18;83764.13;;;-146.98;94.83
28432;BME280;15664;51.302;7.744;2022-12-07T11:40:49;83762.06;;;-146.98;94.41
28432;BME280;15664;51.302;7.744;2022-12-07T11:43:21;83760.03;;;-146.98;93.44
28432;BME280;15664;51.302;7.744;2022-12-07T11:45:58;83800.78;;;-146.98;92.71
28432;BME280;15664;51.302;7.744;2022-12-07T11:48:32;83770.22;;;-146.98;93.31
28432;BME280;15664;51.302;7.744;2022-12-07T11:51:00;83751.91;;;-146.98;92.79
28432;BME280;15664;51.302;7.744;2022-12-07T11:56:17;83808.91;;;-146.98;92.78
28432;BME280;15664;51.302;7.744;2022-12-07T12:06:41;83729.50;;;-146.98;92.07
28432;BME280;15664;51.302;7.744;2022-12-07T12:09:21;83796.69;;;-146.98;92.68
28432;BME280;15664;51.302;7.744;2022-12-07T12:12:04;83792.63;;;-146.98;91.79
28432;BME280;15664;51.302;7.744;2022-12-07T12:22:44;83770.22;;;-146.98;91.67
28432;BME280;15664;51.302;7.744;2022-12-07T12:25:20;83741.72;;;-146.98;91.64
28432;BME280;15664;51.302;7.744;2022-12-07T12:27:48;83741.72;;;-146.98;91.59
28432;BME280;15664;51.302;7.744;2022-12-07T12:30:35;83743.75;;;-146.98;91.67
28432;BME280;15664;51.302;7.744;2022-12-07T12:33:03;83780.41;;;-146.98;92.09
28432;BME280;15664;51.302;7.744;2022-12-07T12:35:36;83768.19;;;-146.98;92.31
28432;BME280;15664;51.302;7.744;2022-12-07T12:38:47;83747.81;;;-146.98;92.26
28432;BME280;15664;51.302;7.744;2022-12-07T12:46:54;83749.84;;;-146.98;92.25
28432;BME280;15664;51.302;7.744;2022-12-07T12:54:22;83760.03;;;-146.98;92.09
28432;BME280;15664;51.302;7.744;2022-12-07T13:02:32;83747.81;;;-146.98;92.43
28432;BME280;15664;51.302;7.744;2022-12-07T13:05:16;83717.28;;;-146.98;92.34
28432;BME280;15664;51.302;7.744;2022-12-07T13:15:38;83766.16;;;-146.98;93.14
28432;BME280;15664;51.302;7.744;2022-12-07T13:31:43;83821.13;;;-146.98;94.14
28432;BME280;15664;51.302;7.744;2022-12-07T13:34:32;83780.41;;;-146.98;94.35
28432;BME280;15664;51.302;7.744;2022-12-07T13:37:10;83817.06;;;-146.98;94.72
28432;BME280;15664;51.302;7.744;2022-12-07T13:39:58;83643.94;;;-146.98;94.74
28432;BME280;15664;51.302;7.744;2022-12-07T13:42:31;83788.56;;;-146.98;94.71
28432;BME280;15664;51.302;7.744;2022-12-07T13:44:59;83837.44;;;-146.98;94.85
28432;BME280;15664;51.302;7.744;2022-12-07T13:49:59;83813.00;;;-146.98;94.82
28432;BME280;15664;51.302;7.744;2022-12-07T13:52:27;83792.63;;;-146.98;95.19
28432;BME280;15664;51.302;7.744;2022-12-07T13:55:05;83829.28;;;-146.98;95.43
28432;BME280;15664;51.302;7.744;2022-12-07T13:57:37;83808.91;;;-146.98;95.59
28432;BME280;15664;51.302;7.744;2022-12-07T14:00:06;83819.09;;;-146.98;95.25
28432;BME280;15664;51.302;7.744;2022-12-07T14:02:33;83819.09;;;-146.98;95.31
28432;BME280;15664;51.302;7.744;2022-12-07T14:05:09;83833.34;;;-146.98;95.29
28432;BME280;15664;51.302;7.744;2022-12-07T14:07:35;83819.09;;;-146.98;95.43
28432;BME280;15664;51.302;7.744;2022-12-07T14:10:06;83788.56;;;-146.98;95.26
28432;BME280;15664;51.302;7.744;2022-12-07T14:12:36;83796.69;;;-146.98;95.66
28432;BME280;15664;51.302;7.744;2022-12-07T14:15:02;83817.06;;;-146.98;95.97
28432;BME280;15664;51.302;7.744;2022-12-07T14:17:28;83813.00;;;-146.98;95.84
28432;BME280;15664;51.302;7.744;2022-12-07T14:19:57;83792.63;;;-146.98;96.02
28432;BME280;15664;51.302;7.744;2022-12-07T14:22:29;83817.06;;;-146.98;96.08
28432;BME280;15664;51.302;7.744;2022-12-07T14:27:32;83774.28;;;-146.98;96.06
28432;BME280;15664;51.302;7.744;2022-12-07T14:30:00;83784.47;;;-146.98;96.29
28432;BME280;15664;51.302;7.744;2022-12-07T14:32:28;83780.41;;;-146.98;96.17
28432;BME280;15664;51.302;7.744;2022-12-07T14:37:33;83829.28;;;-146.98;95.65
28432;BME280;15664;51.302;7.744;2022-12-07T14:39:58;83776.34;;;-146.98;95.77
28432;BME280;15664;51.302;7.744;2022-12-07T14:42:27;83788.56;;;-146.98;95.33
28432;BME280;15664;51.302;7.744;2022-12-07T14:44:53;83784.47;;;-146.98;94.66
28432;BME280;15664;51.302;7.744;2022-12-07T14:47:18;83788.56;;;-146.98;94.55